createdAt,value
2022-09-10T00:01:44.470Z,18.20
2022-09-10T00:04:14.682Z,18.30
2022-09-10T00:06:43.675Z,18.30
2022-09-10T00:09:14.111Z,18.40
2022-09-10T00:11:45.713Z,18.40
2022-09-10T00:14:16.105Z,18.30
2022-09-10T00:16:44.370Z,18.30
2022-09-10T00:19:12.666Z,18.20
2022-09-10T00:21:40.499Z,18.20
2022-09-10T00:24:10.725Z,18.00
2022-09-10T00:26:40.247Z,18.10
2022-09-10T00:29:10.563Z,18.10
2022-09-10T00:31:40.849Z,18.30
2022-09-10T00:34:13.182Z,18.40
2022-09-10T00:36:43.798Z,18.10
2022-09-10T00:39:14.081Z,18.30
2022-09-10T00:41:50.069Z,18.30
2022-09-10T00:45:07.259Z,18.10
2022-09-10T00:50:27.422Z,18.00
2022-09-10T00:53:00.025Z,18.00
2022-09-10T00:55:28.682Z,18.20
2022-09-10T00:58:01.239Z,18.20
2022-09-10T01:00:29.042Z,18.10
2022-09-10T01:02:56.859Z,18.20
2022-09-10T01:05:29.254Z,17.90
2022-09-10T01:07:57.992Z,18.00
2022-09-10T01:10:36.591Z,18.10
2022-09-10T01:13:25.508Z,17.90
2022-09-10T01:16:15.017Z,18.10
2022-09-10T01:18:54.638Z,18.00
2022-09-10T01:21:26.506Z,18.00
2022-09-10T01:24:32.948Z,18.10
2022-09-10T01:27:45.274Z,18.10
2022-09-10T01:30:21.895Z,18.10
2022-09-10T01:33:12.249Z,18.20
2022-09-10T01:35:45.835Z,18.00
2022-09-10T01:38:22.766Z,18.00
2022-09-10T01:40:51.255Z,17.90
2022-09-10T01:43:25.713Z,18.20
2022-09-10T01:46:11.403Z,18.00
2022-09-10T01:49:06.940Z,17.80
2022-09-10T01:51:53.887Z,17.70
2022-09-10T01:54:40.675Z,17.80
2022-09-10T01:57:23.646Z,17.60
2022-09-10T02:00:03.543Z,17.90
2022-09-10T02:02:38.902Z,17.80
2022-09-10T02:05:14.914Z,17.70
2022-09-10T02:07:44.767Z,17.90
2022-09-10T02:10:12.577Z,18.10
2022-09-10T02:12:40.749Z,18.10
2022-09-10T02:15:11.542Z,18.20
2022-09-10T02:17:42.491Z,18.10
2022-09-10T02:20:19.309Z,18.10
2022-09-10T02:22:53.018Z,18.00
2022-09-10T02:25:21.065Z,17.80
2022-09-10T02:27:48.916Z,18.00
2022-09-10T02:30:33.709Z,18.00
2022-09-10T02:33:01.498Z,17.50
2022-09-10T02:35:43.227Z,17.70
2022-09-10T02:38:11.338Z,17.40
2022-09-10T02:40:39.234Z,17.40
2022-09-10T02:43:10.115Z,17.70
2022-09-10T02:46:07.271Z,17.80
2022-09-10T02:48:35.124Z,17.70
2022-09-10T02:51:06.254Z,18.00
2022-09-10T02:53:35.696Z,18.00
2022-09-10T02:56:04.023Z,18.00
2022-09-10T02:58:37.088Z,18.00
2022-09-10T03:01:11.913Z,17.90
2022-09-10T03:03:40.103Z,17.90
2022-09-10T03:06:08.523Z,18.10
2022-09-10T03:08:36.844Z,18.10
2022-09-10T03:11:07.014Z,17.90
2022-09-10T03:13:35.720Z,18.00
2022-09-10T03:16:04.547Z,18.00
2022-09-10T03:18:36.431Z,18.00
2022-09-10T03:21:12.966Z,18.00
2022-09-10T03:23:51.131Z,18.10
2022-09-10T03:26:20.221Z,17.90
2022-09-10T03:28:51.180Z,17.90
2022-09-10T03:31:19.095Z,18.00
2022-09-10T03:33:56.193Z,18.00
2022-09-10T03:36:24.096Z,18.10
2022-09-10T03:38:52.055Z,18.00
2022-09-10T03:41:22.207Z,17.70
2022-09-10T03:43:52.221Z,17.60
2022-09-10T03:46:20.027Z,17.80
2022-09-10T03:48:54.659Z,18.00
2022-09-10T03:51:27.430Z,17.80
2022-09-10T03:54:00.664Z,17.70
2022-09-10T03:56:31.964Z,17.90
2022-09-10T03:59:00.218Z,18.10
2022-09-10T04:01:28.064Z,18.30
2022-09-10T04:04:00.434Z,18.10
2022-09-10T04:06:28.587Z,18.10
2022-09-10T04:08:56.398Z,18.20
2022-09-10T04:11:27.453Z,18.00
2022-09-10T04:13:55.511Z,18.00
2022-09-10T04:16:29.468Z,17.60
2022-09-10T04:19:01.658Z,17.60
2022-09-10T04:21:29.448Z,17.70
2022-09-10T04:24:01.522Z,17.80
2022-09-10T04:26:29.490Z,17.70
2022-09-10T04:28:59.607Z,18.00
2022-09-10T04:31:29.534Z,17.90
2022-09-10T04:34:01.868Z,17.70
2022-09-10T04:36:31.019Z,17.50
2022-09-10T04:38:59.800Z,17.60
2022-09-10T04:41:27.573Z,17.50
2022-09-10T04:43:58.379Z,17.40
2022-09-10T04:46:26.451Z,17.40
2022-09-10T04:48:56.315Z,17.40
2022-09-10T04:51:26.241Z,17.50
2022-09-10T04:53:59.327Z,17.70
2022-09-10T04:56:41.098Z,17.30
2022-09-10T04:59:10.754Z,17.40
2022-09-10T05:01:38.555Z,17.20
2022-09-10T05:04:06.474Z,17.50
2022-09-10T05:09:17.470Z,17.80
2022-09-10T05:11:49.306Z,17.80
2022-09-10T05:14:17.369Z,17.70
2022-09-10T05:16:46.244Z,17.60
2022-09-10T05:19:20.645Z,17.70
2022-09-10T05:21:49.356Z,17.80
2022-09-10T05:24:21.166Z,17.80
2022-09-10T05:26:48.980Z,17.60
2022-09-10T05:29:16.888Z,17.50
2022-09-10T05:31:44.743Z,17.40
2022-09-10T05:34:17.446Z,17.70
2022-09-10T05:36:51.794Z,17.70
2022-09-10T05:39:20.981Z,17.80
2022-09-10T05:41:50.903Z,17.70
2022-09-10T05:44:21.060Z,17.70
2022-09-10T05:46:49.147Z,17.80
2022-09-10T05:49:16.951Z,18.00
2022-09-10T05:51:46.836Z,17.90
2022-09-10T05:54:14.617Z,17.90
2022-09-10T05:56:46.626Z,17.80
2022-09-10T05:59:14.411Z,18.00
2022-09-10T06:01:53.488Z,18.10
2022-09-10T06:04:22.269Z,17.80
2022-09-10T06:09:32.934Z,17.80
2022-09-10T06:12:05.973Z,17.70
2022-09-10T06:14:33.905Z,17.50
2022-09-10T06:17:06.401Z,17.70
2022-09-10T06:19:39.387Z,17.80
2022-09-10T06:22:09.998Z,17.70
2022-09-10T06:24:37.921Z,17.80
2022-09-10T06:27:16.900Z,17.70
2022-09-10T06:29:44.748Z,17.90
2022-09-10T06:32:15.394Z,17.90
2022-09-10T06:34:46.234Z,18.00
2022-09-10T06:37:20.922Z,17.90
2022-09-10T06:39:48.819Z,17.80
2022-09-10T06:42:18.047Z,18.10
2022-09-10T06:44:45.881Z,18.10
2022-09-10T06:48:06.838Z,18.30
2022-09-10T06:50:04.404Z,18.20
2022-09-10T06:52:32.220Z,18.30
2022-09-10T06:55:04.117Z,18.30
2022-09-10T06:57:35.410Z,18.30
2022-09-10T07:00:03.627Z,18.20
2022-09-10T07:02:34.535Z,18.30
2022-09-10T07:05:14.587Z,18.00
2022-09-10T07:07:44.719Z,18.00
2022-09-10T07:10:12.504Z,18.00
2022-09-10T07:12:44.022Z,17.70
2022-09-10T07:15:14.989Z,18.00
2022-09-10T07:17:45.219Z,18.20
2022-09-10T07:20:15.194Z,18.00
2022-09-10T07:22:45.961Z,17.80
2022-09-10T07:25:13.789Z,17.90
2022-09-10T07:27:45.607Z,18.10
2022-09-10T07:30:16.491Z,17.90
2022-09-10T07:32:47.873Z,18.00
2022-09-10T07:35:21.334Z,17.80
2022-09-10T07:37:51.948Z,18.00
2022-09-10T07:40:19.830Z,18.00
2022-09-10T07:42:52.288Z,18.10
2022-09-10T07:45:21.267Z,18.00
2022-09-10T07:47:49.854Z,18.20
2022-09-10T07:50:22.357Z,18.00
2022-09-10T07:52:50.448Z,17.80
2022-09-10T07:55:19.066Z,18.10
2022-09-10T07:57:46.915Z,18.20
2022-09-10T08:00:25.248Z,18.40
2022-09-10T08:02:53.093Z,18.20
2022-09-10T08:05:23.234Z,18.40
2022-09-10T08:07:54.121Z,18.40
2022-09-10T08:10:25.132Z,18.50
2022-09-10T08:12:56.355Z,18.00
2022-09-10T08:15:25.535Z,18.20
2022-09-10T08:17:55.534Z,18.30
2022-09-10T08:20:31.051Z,18.30
2022-09-10T08:22:59.635Z,18.10
2022-09-10T08:25:27.440Z,18.20
2022-09-10T08:27:57.734Z,18.30
2022-09-10T08:30:27.203Z,18.50
2022-09-10T08:32:58.188Z,18.30
2022-09-10T08:35:37.416Z,18.50
2022-09-10T08:38:05.283Z,18.40
2022-09-10T08:40:33.474Z,18.60
2022-09-10T08:43:02.583Z,18.60
2022-09-10T08:45:34.606Z,18.60
2022-09-10T08:48:08.120Z,18.60
2022-09-10T08:50:41.236Z,18.20
2022-09-10T08:53:24.904Z,18.30
2022-09-10T08:55:59.381Z,18.30
2022-09-10T08:58:33.227Z,18.40
2022-09-10T09:01:05.475Z,18.50
2022-09-10T09:03:37.790Z,18.30
2022-09-10T09:06:08.465Z,18.20
2022-09-10T09:08:41.574Z,18.40
2022-09-10T09:11:24.096Z,18.70
2022-09-10T09:14:09.361Z,18.90
2022-09-10T09:17:11.284Z,18.90
2022-09-10T09:19:52.113Z,18.40
2022-09-10T09:22:24.091Z,18.50
2022-09-10T09:24:57.725Z,18.50
2022-09-10T09:27:29.570Z,18.20
2022-09-10T09:30:02.701Z,18.00
2022-09-10T09:32:42.598Z,18.30
2022-09-10T09:35:25.727Z,18.20
2022-09-10T09:38:09.363Z,18.30
2022-09-10T09:40:47.871Z,18.20
2022-09-10T09:43:33.611Z,18.10
2022-09-10T09:46:02.235Z,18.20
2022-09-10T09:48:40.420Z,18.50
2022-09-10T09:51:13.824Z,18.40
2022-09-10T09:53:46.338Z,18.20
2022-09-10T09:56:23.808Z,17.90
2022-09-10T09:58:52.512Z,18.20
2022-09-10T10:01:23.571Z,18.10
2022-09-10T10:03:58.494Z,18.10
2022-09-10T10:06:28.221Z,18.30
2022-09-10T10:09:08.101Z,18.40
2022-09-10T10:11:46.682Z,18.30
2022-09-10T10:14:23.583Z,18.70
2022-09-10T10:16:59.960Z,18.70
2022-09-10T10:19:35.179Z,18.50
2022-09-10T10:22:24.290Z,18.60
2022-09-10T10:24:54.246Z,18.70
2022-09-10T10:27:29.895Z,18.60
2022-09-10T10:30:00.163Z,18.60
2022-09-10T10:32:40.585Z,18.60
2022-09-10T10:35:45.748Z,18.30
2022-09-10T10:38:34.254Z,18.30
2022-09-10T10:41:26.052Z,18.50
2022-09-10T10:44:04.288Z,18.40
2022-09-10T10:46:39.053Z,18.10
2022-09-10T10:49:19.820Z,18.20
2022-09-10T10:51:53.368Z,18.00
2022-09-10T10:54:45.552Z,18.10
2022-09-10T10:57:24.861Z,18.20
2022-09-10T10:59:57.740Z,18.10
2022-09-10T11:02:41.403Z,18.10
2022-09-10T11:05:31.514Z,18.10
2022-09-10T11:08:05.110Z,18.10
2022-09-10T11:10:40.291Z,18.30
2022-09-10T11:13:14.029Z,18.30
2022-09-10T11:15:49.162Z,18.50
2022-09-10T11:18:21.439Z,18.60
2022-09-10T11:21:00.278Z,18.70
2022-09-10T11:23:45.317Z,18.80
2022-09-10T11:26:29.817Z,18.70
2022-09-10T11:29:05.211Z,18.90
2022-09-10T11:31:36.467Z,18.50
2022-09-10T11:34:07.864Z,18.10
2022-09-10T11:36:46.103Z,17.80
2022-09-10T11:39:25.801Z,17.80
2022-09-10T11:41:55.941Z,18.20
2022-09-10T11:44:49.479Z,18.40
2022-09-10T11:47:21.857Z,18.80
2022-09-10T11:49:54.920Z,18.80
2022-09-10T11:52:25.607Z,18.80
2022-09-10T11:54:55.637Z,18.90
2022-09-10T11:57:33.762Z,19.00
2022-09-10T12:00:11.647Z,19.10
2022-09-10T12:03:20.227Z,19.00
2022-09-10T12:06:02.893Z,18.40
2022-09-10T12:11:42.019Z,18.50
2022-09-10T12:14:16.556Z,18.80
2022-09-10T12:16:51.171Z,18.50
2022-09-10T12:19:27.319Z,18.40
2022-09-10T12:21:59.292Z,18.40
2022-09-10T12:24:31.852Z,18.70
2022-09-10T12:27:06.777Z,18.80
2022-09-10T12:29:37.068Z,19.00
2022-09-10T12:32:41.151Z,19.10
2022-09-10T12:35:45.370Z,18.80
2022-09-10T12:38:46.769Z,18.80
2022-09-10T12:41:53.309Z,18.90
2022-09-10T12:44:50.170Z,18.80
2022-09-10T12:47:41.013Z,18.90
2022-09-10T12:50:30.875Z,18.70
2022-09-10T12:53:31.216Z,18.60
2022-09-10T12:56:17.498Z,18.50
2022-09-10T12:59:09.878Z,18.50
2022-09-10T13:01:44.102Z,18.70
2022-09-10T13:04:25.534Z,18.40
2022-09-10T13:06:57.100Z,18.60
2022-09-10T13:09:31.009Z,18.90
2022-09-10T13:12:10.178Z,19.10
2022-09-10T13:14:40.899Z,19.10
2022-09-10T13:17:38.681Z,18.80
2022-09-10T13:20:31.011Z,18.80
2022-09-10T13:23:01.388Z,18.40
2022-09-10T13:25:49.243Z,18.60
2022-09-10T13:28:56.804Z,18.80
2022-09-10T13:31:30.145Z,18.70
2022-09-10T13:34:41.107Z,18.90
2022-09-10T13:37:39.306Z,19.10
2022-09-10T13:40:40.754Z,19.30
2022-09-10T13:43:42.675Z,19.40
2022-09-10T13:46:17.835Z,19.50
2022-09-10T13:48:51.561Z,19.40
2022-09-10T13:51:34.791Z,19.40
2022-09-10T13:54:08.387Z,19.50
2022-09-10T13:56:43.617Z,19.10
2022-09-10T13:59:28.049Z,19.20
2022-09-10T14:01:58.085Z,18.90
2022-09-10T14:04:31.976Z,19.00
2022-09-10T14:07:07.935Z,18.80
2022-09-10T14:09:36.239Z,19.00
2022-09-10T14:12:10.512Z,19.10
2022-09-10T14:14:42.792Z,18.80
2022-09-10T14:17:15.599Z,18.90
2022-09-10T14:19:49.211Z,18.90
2022-09-10T14:22:22.091Z,18.90
2022-09-10T14:24:53.457Z,18.90
2022-09-10T14:27:25.672Z,18.90
2022-09-10T14:29:56.166Z,19.10
2022-09-10T14:32:32.645Z,19.30
2022-09-10T14:35:02.726Z,19.30
2022-09-10T14:37:47.496Z,19.50
2022-09-10T14:40:20.756Z,19.50
2022-09-10T14:42:51.331Z,19.50
2022-09-10T14:45:38.703Z,19.30
2022-09-10T14:48:09.327Z,19.10
2022-09-10T14:50:40.124Z,19.00
2022-09-10T14:53:09.264Z,18.80
2022-09-10T14:55:39.932Z,18.50
2022-09-10T14:58:10.387Z,18.50
2022-09-10T15:00:38.238Z,18.50
2022-09-10T15:03:15.729Z,18.20
2022-09-10T15:05:45.591Z,18.20
2022-09-10T15:08:14.783Z,18.30
2022-09-10T15:10:44.681Z,18.50
2022-09-10T15:13:20.823Z,18.70
2022-09-10T15:15:48.682Z,18.80
2022-09-10T15:18:19.273Z,19.00
2022-09-10T15:20:54.490Z,19.00
2022-09-10T15:23:23.599Z,19.10
2022-09-10T15:25:55.045Z,19.20
2022-09-10T15:28:26.198Z,19.30
2022-09-10T15:30:54.099Z,19.30
2022-09-10T15:33:24.972Z,19.40
2022-09-10T15:35:52.780Z,19.40
2022-09-10T15:38:23.129Z,19.30
2022-09-10T15:40:54.424Z,19.00
2022-09-10T15:43:24.208Z,19.10
2022-09-10T15:45:51.992Z,18.90
2022-09-10T15:48:19.859Z,18.70
2022-09-10T15:50:48.926Z,18.80
2022-09-10T15:53:17.152Z,18.90
2022-09-10T15:55:53.203Z,19.10
2022-09-10T15:58:22.365Z,19.40
2022-09-10T16:00:50.191Z,19.30
2022-09-10T16:03:20.883Z,19.40
2022-09-10T16:05:48.678Z,19.40
2022-09-10T16:08:16.466Z,19.50
2022-09-10T16:10:47.132Z,19.50
2022-09-10T16:13:14.957Z,19.40
2022-09-10T16:15:44.254Z,19.40
2022-09-10T16:18:14.556Z,19.40
2022-09-10T16:20:42.360Z,19.30
2022-09-10T16:23:12.493Z,19.20
2022-09-10T16:25:52.466Z,19.20
2022-09-10T16:28:23.320Z,19.10
2022-09-10T16:30:59.134Z,19.10
2022-09-10T16:33:27.018Z,19.20
2022-09-10T16:35:54.844Z,19.10
2022-09-10T16:38:22.663Z,19.10
2022-09-10T16:41:01.284Z,19.00
2022-09-10T16:43:31.088Z,19.10
2022-09-10T16:46:05.509Z,19.00
2022-09-10T16:48:39.453Z,18.90
2022-09-10T16:51:09.854Z,18.90
2022-09-10T16:53:38.662Z,18.90
2022-09-10T16:56:08.570Z,18.90
2022-09-10T16:58:37.076Z,18.90
2022-09-10T17:01:09.020Z,18.90
2022-09-10T17:03:40.395Z,18.90
2022-09-10T17:06:14.701Z,19.00
2022-09-10T17:08:42.992Z,19.00
2022-09-10T17:11:16.442Z,19.10
2022-09-10T17:13:44.340Z,19.10
2022-09-10T17:16:25.586Z,19.00
2022-09-10T17:19:04.061Z,19.00
2022-09-10T17:21:38.497Z,19.10
2022-09-10T17:24:08.528Z,19.00
2022-09-10T17:26:41.611Z,19.00
2022-09-10T17:29:14.502Z,19.00
2022-09-10T17:31:45.367Z,18.90
2022-09-10T17:34:16.482Z,19.00
2022-09-10T17:36:46.183Z,19.00
2022-09-10T17:41:57.992Z,18.90
2022-09-10T17:44:26.819Z,18.90
2022-09-10T17:46:56.121Z,18.80
2022-09-10T17:49:27.389Z,18.60
2022-09-10T17:52:02.341Z,18.50
2022-09-10T17:54:30.148Z,18.40
2022-09-10T17:56:57.997Z,18.50
2022-09-10T17:59:32.167Z,18.30
2022-09-10T18:02:01.681Z,18.20
2022-09-10T18:04:30.654Z,18.20
2022-09-10T18:06:58.422Z,18.30
2022-09-10T18:12:01.481Z,18.30
2022-09-10T18:14:32.095Z,18.30
2022-09-10T18:17:04.320Z,18.30
2022-09-10T18:19:33.043Z,18.30
2022-09-10T18:22:05.131Z,18.40
2022-09-10T18:24:33.145Z,18.30
2022-09-10T18:27:04.462Z,18.30
2022-09-10T18:29:41.310Z,18.30
2022-09-10T18:32:14.927Z,18.30
2022-09-10T18:34:43.937Z,18.30
2022-09-10T18:37:12.873Z,18.20
2022-09-10T18:39:49.897Z,18.20
2022-09-10T18:42:26.679Z,18.20
2022-09-10T18:44:54.592Z,18.10
2022-09-10T18:47:44.686Z,18.00
2022-09-10T18:50:13.506Z,18.10
2022-09-10T18:52:41.452Z,18.10
2022-09-10T18:55:12.056Z,18.10
2022-09-10T18:57:39.906Z,18.20
2022-09-10T19:00:08.917Z,18.10
2022-09-10T19:02:40.255Z,18.20
2022-09-10T19:05:11.976Z,18.20
2022-09-10T19:07:48.924Z,18.30
2022-09-10T19:10:16.845Z,18.40
2022-09-10T19:12:47.673Z,18.50
2022-09-10T19:15:18.510Z,18.70
2022-09-10T19:17:50.472Z,18.90
2022-09-10T19:20:18.493Z,18.90
2022-09-10T19:22:49.069Z,18.80
2022-09-10T19:25:17.022Z,18.80
2022-09-10T19:27:47.562Z,18.80
2022-09-10T19:30:18.900Z,18.70
2022-09-10T19:32:52.247Z,18.80
2022-09-10T19:35:20.276Z,18.60
2022-09-10T19:37:54.348Z,18.60
2022-09-10T19:40:22.131Z,18.60
2022-09-10T19:42:52.362Z,18.70
2022-09-10T19:45:20.239Z,18.80
2022-09-10T19:47:49.578Z,18.90
2022-09-10T19:50:22.689Z,18.80
2022-09-10T19:52:51.734Z,18.80
2022-09-10T19:55:19.535Z,18.70
2022-09-10T19:57:48.311Z,18.80
2022-09-10T20:00:42.959Z,18.70
2022-09-10T20:03:10.859Z,18.80
2022-09-10T20:05:39.289Z,18.90
2022-09-10T20:08:13.024Z,18.60
2022-09-10T20:10:40.844Z,18.70
2022-09-10T20:13:08.938Z,18.60
2022-09-10T20:15:45.436Z,18.80
2022-09-10T20:18:20.209Z,19.00
2022-09-10T20:20:48.023Z,19.10
2022-09-10T20:23:15.901Z,19.10
2022-09-10T20:25:43.748Z,19.30
2022-09-10T20:28:12.435Z,19.20
2022-09-10T20:30:42.530Z,19.10
2022-09-10T20:33:10.359Z,19.20
2022-09-10T20:35:43.275Z,19.40
2022-09-10T20:38:14.121Z,19.40
2022-09-10T20:40:45.124Z,19.50
2022-09-10T20:43:13.470Z,19.50
2022-09-10T20:45:43.824Z,19.60
2022-09-10T20:48:11.948Z,19.80
2022-09-10T20:50:41.082Z,19.80
2022-09-10T20:53:08.908Z,19.80
2022-09-10T20:55:36.733Z,19.90
2022-09-10T20:58:04.506Z,20.00
2022-09-10T21:00:32.593Z,20.00
2022-09-10T21:03:01.603Z,19.80
2022-09-10T21:05:32.258Z,19.90
2022-09-10T21:08:01.458Z,19.80
2022-09-10T21:10:29.287Z,19.90
2022-09-10T21:12:57.130Z,19.90
2022-09-10T21:15:25.183Z,19.90
2022-09-10T21:17:53.095Z,19.80
2022-09-10T21:20:22.333Z,19.80
2022-09-10T21:22:50.343Z,19.60
2022-09-10T21:25:26.048Z,19.30
2022-09-10T21:27:56.053Z,19.30
2022-09-10T21:30:23.840Z,19.20
2022-09-10T21:32:54.952Z,19.20
2022-09-10T21:35:28.332Z,19.20
2022-09-10T21:37:58.511Z,19.10
2022-09-10T21:40:27.702Z,19.10
2022-09-10T21:42:55.518Z,19.30
2022-09-10T21:45:26.235Z,19.20
2022-09-10T21:47:57.048Z,19.10
2022-09-10T21:50:24.882Z,19.10
2022-09-10T21:52:52.788Z,19.30
2022-09-10T21:55:20.600Z,19.20
2022-09-10T21:57:49.752Z,19.30
2022-09-10T22:00:18.954Z,19.20
2022-09-10T22:02:46.818Z,18.80
2022-09-10T22:05:14.726Z,18.60
2022-09-10T22:07:42.537Z,18.40
2022-09-10T22:10:10.655Z,18.50
2022-09-10T22:12:38.486Z,18.60
2022-09-10T22:15:11.110Z,18.60
2022-09-10T22:17:38.917Z,18.60
2022-09-10T22:20:07.800Z,18.80
2022-09-10T22:22:35.764Z,18.80
2022-09-10T22:25:03.692Z,19.00
2022-09-10T22:27:31.527Z,19.10
2022-09-10T22:29:59.896Z,18.90
2022-09-10T22:32:33.851Z,18.80
2022-09-10T22:35:03.950Z,18.80
2022-09-10T22:37:31.889Z,18.90
2022-09-10T22:40:02.577Z,18.90
2022-09-10T22:42:31.944Z,18.90
2022-09-10T22:45:00.770Z,19.00
2022-09-10T22:47:29.942Z,18.90
2022-09-10T22:49:59.815Z,18.70
2022-09-10T22:52:34.963Z,18.70
2022-09-10T22:55:03.186Z,18.40
2022-09-10T22:57:31.654Z,18.30
2022-09-10T22:59:59.530Z,18.20
2022-09-10T23:02:31.698Z,18.30
2022-09-10T23:04:59.972Z,18.30
2022-09-10T23:07:27.819Z,18.40
2022-09-10T23:09:56.111Z,18.50
2022-09-10T23:12:24.082Z,18.50
2022-09-10T23:14:51.902Z,18.30
2022-09-10T23:17:22.595Z,18.50
2022-09-10T23:19:51.997Z,18.60
2022-09-10T23:25:05.344Z,18.30
2022-09-10T23:27:33.176Z,18.20
2022-09-10T23:30:00.994Z,18.30
2022-09-10T23:32:31.099Z,18.40
2022-09-10T23:35:01.055Z,18.40
2022-09-10T23:37:28.855Z,18.40
2022-09-10T23:39:56.704Z,18.50
2022-09-10T23:42:24.568Z,18.60
2022-09-10T23:44:52.554Z,18.60
2022-09-10T23:47:23.125Z,18.60
2022-09-10T23:49:50.934Z,18.50
2022-09-10T23:52:20.400Z,18.50
2022-09-10T23:54:54.402Z,18.50
2022-09-10T23:57:24.262Z,18.50
2022-09-10T23:59:54.382Z,18.40
